ADDS METAR Data INFO
IDs: Format: Raw Decoded Include TAF

Data at: 0455 UTC 25 May 2018

KBBD 250435Z AUTO 14005KT 10SM CLR 25/15 A3005 RMK AO2
KBBD 250415Z AUTO 14004KT 10SM CLR 25/15 A3005 RMK AO2
KBBD 250355Z AUTO 16005KT 10SM CLR 25/15 A3005 RMK AO2
KBBD 250335Z AUTO 15004KT 10SM CLR 26/15 A3004 RMK AO2
KBBD 250315Z AUTO 14003KT 10SM CLR 26/15 A3004 RMK AO2
KBBD 250255Z AUTO 16004KT 10SM CLR 27/14 A3003 RMK AO2
KBBD 250235Z AUTO 14004KT 10SM CLR 27/14 A3002 RMK AO2
KBBD 250215Z AUTO 13003KT 10SM CLR 28/15 A3002 RMK AO2
KBBD 250155Z AUTO 14003KT 10SM CLR 29/15 A3002 RMK AO2
KBBD 250135Z AUTO 18003KT 10SM CLR 29/15 A3001 RMK AO2
KBBD 250115Z AUTO 17007KT 10SM CLR 30/15 A3001 RMK AO2
KBBD 250055Z AUTO 17008KT 10SM CLR 31/15 A3000 RMK AO2
KBBD 250035Z AUTO 16008KT 10SM CLR 31/15 A3000 RMK AO2
KBBD 250015Z AUTO 18005KT 10SM SCT070 31/15 A2999 RMK AO2
KBBD 242355Z AUTO 19008KT 10SM BKN070 BKN100 32/15 A2999 RMK AO2
KBBD 242335Z AUTO 17009KT 10SM BKN065 BKN075 BKN095 32/15 A3000 RMK AO2
KBBD 242315Z AUTO 15008KT 10SM BKN065 BKN075 32/15 A3000 RMK AO2
KBBD 242255Z AUTO VRB06KT 10SM FEW070 32/15 A3001 RMK AO2
KBBD 242235Z AUTO 17007G12KT 130V190 10SM CLR 32/15 A3001 RMK AO2
KBBD 242215Z AUTO 19007KT 10SM SCT065 SCT080 32/15 A3002 RMK AO2
KBBD 242155Z AUTO 13007KT 10SM SCT065 BKN100 32/15 A3002 RMK AO2
KBBD 242135Z AUTO VRB04KT 10SM BKN095 31/16 A3003 RMK AO2
KBBD 242115Z AUTO 16005G11KT 10SM FEW060 BKN085 OVC100 31/16 A3004 RMK AO2
KBBD 242055Z AUTO 16009KT 10SM SCT060 BKN080 32/16 A3004 RMK AO2
KBBD 242035Z AUTO 20006G12KT 10SM SCT075 32/16 A3005 RMK AO2
KBBD 242015Z AUTO 18007KT 140V240 10SM FEW055 SCT065 32/17 A3005 RMK AO2
KBBD 241955Z AUTO 20007G13KT 10SM SCT055 SCT065 31/17 A3006 RMK AO2
KBBD 241935Z AUTO 17009KT 10SM SCT050 BKN065 30/17 A3007 RMK AO2
KBBD 241915Z AUTO VRB05G10KT 10SM FEW050 BKN065 30/17 A3007 RMK AO2
KBBD 241855Z AUTO 15009KT 10SM FEW049 FEW055 FEW065 31/17 A3008 RMK AO2
KBBD 241835Z AUTO 20007KT 10SM FEW049 SCT060 BKN075 29/17 A3009 RMK AO2
KBBD 241815Z AUTO 21006G15KT 10SM BKN060 BKN075 29/17 A3010 RMK AO2
KBBD 241750Z AUTO 22008KT 10SM FEW043 30/18 A3011 RMK AO2
KBBD 241735Z AUTO 18007KT 10SM FEW042 29/18 A3011 RMK AO2
KBBD 241715Z AUTO VRB05KT 10SM SCT038 28/18 A3012 RMK AO2
KBBD 241655Z AUTO 17008KT 10SM SCT037 28/19 A3012 RMK AO2
KBBD 241635Z AUTO 15006KT 10SM SCT033 BKN038 27/19 A3013 RMK AO2
KBBD 241615Z AUTO 18010KT 10SM SCT030 SCT035 27/19 A3013 RMK AO2
KBBD 241555Z AUTO 20007KT 160V220 10SM BKN027 27/19 A3013 RMK AO2
KBBD 241535Z AUTO 21009KT 10SM SCT025 26/20 A3012 RMK AO2
KBBD 241515Z AUTO 20008KT 10SM CLR 26/20 A3012 RMK AO2
KBBD 241455Z AUTO 18008KT 160V220 10SM CLR 26/19 A3012 RMK AO2
KBBD 241435Z AUTO 18008KT 10SM CLR 25/19 A3012 RMK AO2
KBBD 241355Z AUTO 19008KT 150V210 10SM CLR 24/20 A3011 RMK AO2
KBBD 241335Z AUTO 20008KT 10SM CLR 23/20 A3010 RMK AO2
KBBD 241315Z AUTO 20008KT 10SM CLR 22/20 A3010 RMK AO2
KBBD 241255Z AUTO 16006KT 9SM CLR 22/20 A3009 RMK AO2
KBBD 241235Z AUTO 17004KT 9SM FEW013 21/19 A3009 RMK AO2
KBBD 241215Z AUTO 18005KT 9SM BKN013 21/19 A3009 RMK AO2
KBBD 241155Z AUTO 18004KT 8SM OVC011 21/19 A3009 RMK AO2
KBBD 241135Z AUTO 17004KT 9SM BKN010 20/19 A3009 RMK AO2
KBBD 241115Z AUTO 17005KT 10SM FEW011 20/19 A3007 RMK AO2
KBBD 241055Z AUTO 14005KT 10SM CLR 20/19 A3006 RMK AO2
KBBD 241035Z AUTO 14004KT 10SM CLR 20/19 A3006 RMK AO2
KBBD 241015Z AUTO 15007KT 10SM FEW012 20/19 A3005 RMK AO2
KBBD 240955Z AUTO 14006KT 10SM SCT012 20/19 A3006 RMK AO2
KBBD 240935Z AUTO 15007KT 10SM BKN011 20/19 A3005 RMK AO2
KBBD 240915Z AUTO 16006KT 10SM FEW042 20/19 A3006 RMK AO2
KBBD 240855Z AUTO 15006KT 10SM FEW032 BKN042 20/19 A3006 RMK AO2
KBBD 240835Z AUTO 14007KT 10SM SCT034 SCT040 SCT048 21/19 A3006 RMK AO2
KBBD 240815Z AUTO 13008KT 10SM CLR 21/19 A3007 RMK AO2
KBBD 240755Z AUTO 13006KT 10SM CLR 21/19 A3008 RMK AO2
KBBD 240735Z AUTO 14006KT 10SM CLR 21/19 A3008 RMK AO2
KBBD 240715Z AUTO 14006KT 10SM FEW041 FEW047 FEW055 21/19 A3009 RMK AO2
KBBD 240655Z AUTO 13005KT 10SM FEW041 BKN047 BKN055 21/18 A3009 RMK AO2
KBBD 240635Z AUTO 13006KT 10SM FEW043 BKN050 22/18 A3009 RMK AO2
KBBD 240615Z AUTO 13005KT 10SM FEW042 BKN049 22/18 A3009 RMK AO2
KBBD 240555Z AUTO 15005KT 10SM BKN048 22/18 A3009 RMK AO2
KBBD 240535Z AUTO 13005KT 10SM FEW043 SCT050 22/18 A3010 RMK AO2
KBBD 240515Z AUTO 15005KT 10SM FEW044 SCT050 23/18 A3009 RMK AO2
KBBD 240455Z AUTO 14006KT 10SM CLR 23/18 A3010 RMK AO2
KBBD 240435Z AUTO 14007KT 10SM CLR 24/18 A3009 RMK AO2
KBBD 240415Z AUTO 14007KT 10SM CLR 24/18 A3009 RMK AO2
KBBD 240355Z AUTO 14006G12KT 10SM CLR 25/18 A3008 RMK AO2
KBBD 240335Z AUTO 13007KT 10SM CLR 25/18 A3007 RMK AO2
KBBD 240315Z AUTO 14006G15KT 10SM CLR 25/18 A3006 RMK AO2
KBBD 240255Z AUTO 13008G14KT 10SM CLR 26/18 A3005 RMK AO2
KBBD 240235Z AUTO 13010G18KT 10SM CLR 27/16 A3003 RMK AO2
KBBD 240215Z AUTO 12006KT 10SM CLR 27/16 A3002 RMK AO2
KBBD 240155Z AUTO 13004KT 10SM CLR 27/16 A3001 RMK AO2
KBBD 240135Z AUTO 14007G12KT 10SM CLR 28/15 A3000 RMK AO2
KBBD 240115Z AUTO 14008KT 10SM CLR 29/15 A2999 RMK AO2
KBBD 240055Z AUTO 14007G12KT 10SM FEW065 FEW080 FEW085 29/15 A2998 RMK AO2
KBBD 240035Z AUTO 13009KT 10SM SCT065 BKN080 BKN085 30/15 A2998 RMK AO2
KBBD 240015Z AUTO 15010KT 130V190 10SM SCT070 SCT080 30/14 A2998 RMK AO2
KBBD 232355Z AUTO 13008G14KT 100V160 10SM SCT070 SCT080 31/14 A2997 RMK AO2
KBBD 232335Z AUTO 14012KT 10SM SCT070 SCT085 31/13 A2997 RMK AO2
KBBD 232315Z AUTO 12010G16KT 10SM FEW080 SCT090 31/12 A2998 RMK AO2
KBBD 232255Z AUTO 15007KT 10SM CLR 31/13 A2998 RMK AO2
KBBD 232235Z AUTO 14006G13KT 10SM CLR 31/13 A2998 RMK AO2
KBBD 232215Z AUTO 13007G14KT 10SM FEW070 FEW085 31/12 A2999 RMK AO2
KBBD 232155Z AUTO 14008G15KT 10SM FEW070 SCT085 30/14 A3000 RMK AO2
KBBD 232135Z AUTO 14008KT 10SM FEW065 FEW080 SCT090 31/14 A3000 RMK AO2
KBBD 232115Z AUTO VRB05KT 10SM SCT065 BKN080 BKN085 31/14 A3001 RMK AO2
KBBD 232055Z AUTO 11006G13KT 10SM BKN065 BKN075 BKN085 31/14 A3002 RMK AO2
KBBD 232035Z AUTO VRB05G11KT 10SM FEW060 FEW080 31/14 A3002 RMK AO2
KBBD 232015Z AUTO 18007KT 140V200 10SM FEW065 FEW080 30/15 A3003 RMK AO2
KBBD 231955Z AUTO 14007KT 10SM FEW055 SCT070 SCT080 30/15 A3004 RMK AO2
KBBD 231935Z AUTO 00000G12KT 10SM SCT055 SCT065 30/14 A3004 RMK AO2
KBBD 231915Z AUTO 17010KT 150V210 10SM FEW050 FEW060 30/15 A3005 RMK AO2
KBBD 231855Z AUTO 20007KT 10SM SCT050 SCT055 29/16 A3006 RMK AO2
KBBD 231835Z AUTO 14006KT 10SM SCT049 SCT055 29/15 A3006 RMK AO2
KBBD 231815Z AUTO 14010KT 10SM SCT049 BKN060 29/16 A3007 RMK AO2
KBBD 231755Z AUTO 20008KT 10SM FEW047 29/16 A3007 RMK AO2
KBBD 231735Z AUTO VRB06G13KT 10SM SCT045 28/16 A3008 RMK AO2
KBBD 231715Z AUTO 14007G13KT 10SM FEW040 SCT045 28/17 A3009 RMK AO2